sensor_id;sensor_type;location;lat;lon;timestamp;P1;durP1;ratioP1;P2;durP2;ratioP2
75634;SDS011;64227;48.724;9.104;2022-12-29T00:02:07;3.30;;;0.55;;
75634;SDS011;64227;48.724;9.104;2022-12-29T00:04:32;1.50;;;0.73;;
75634;SDS011;64227;48.724;9.104;2022-12-29T00:06:58;1.85;;;0.82;;
75634;SDS011;64227;48.724;9.104;2022-12-29T00:09:23;2.95;;;1.10;;
75634;SDS011;64227;48.724;9.104;2022-12-29T00:11:50;2.17;;;0.90;;
75634;SDS011;64227;48.724;9.104;2022-12-29T00:14:15;1.35;;;0.80;;
75634;SDS011;64227;48.724;9.104;2022-12-29T00:16:59;1.35;;;0.80;;
75634;SDS011;64227;48.724;9.104;2022-12-29T00:19:24;2.17;;;0.70;;
75634;SDS011;64227;48.724;9.104;2022-12-29T00:22:09;1.35;;;1.02;;
75634;SDS011;64227;48.724;9.104;2022-12-29T00:24:53;2.15;;;0.63;;
75634;SDS011;64227;48.724;9.104;2022-12-29T00:27:25;2.72;;;0.88;;
75634;SDS011;64227;48.724;9.104;2022-12-29T00:30:14;1.83;;;0.80;;
75634;SDS011;64227;48.724;9.104;2022-12-29T00:32:59;1.55;;;0.85;;
75634;SDS011;64227;48.724;9.104;2022-12-29T00:35:44;1.33;;;0.70;;
75634;SDS011;64227;48.724;9.104;2022-12-29T00:38:11;0.85;;;0.60;;
75634;SDS011;64227;48.724;9.104;2022-12-29T00:40:56;2.78;;;1.00;;
75634;SDS011;64227;48.724;9.104;2022-12-29T00:43:40;1.30;;;0.50;;
75634;SDS011;64227;48.724;9.104;2022-12-29T00:46:24;2.38;;;1.13;;
75634;SDS011;64227;48.724;9.104;2022-12-29T00:48:49;0.88;;;0.70;;
75634;SDS011;64227;48.724;9.104;2022-12-29T00:51:33;1.17;;;0.50;;
75634;SDS011;64227;48.724;9.104;2022-12-29T00:53:58;2.67;;;0.80;;
75634;SDS011;64227;48.724;9.104;2022-12-29T00:56:23;1.42;;;0.70;;
75634;SDS011;64227;48.724;9.104;2022-12-29T00:58:49;1.35;;;0.68;;
75634;SDS011;64227;48.724;9.104;2022-12-29T01:01:14;0.98;;;0.70;;
75634;SDS011;64227;48.724;9.104;2022-12-29T01:03:40;1.15;;;0.70;;
75634;SDS011;64227;48.724;9.104;2022-12-29T01:06:06;1.15;;;0.93;;
75634;SDS011;64227;48.724;9.104;2022-12-29T01:08:33;3.17;;;0.68;;
75634;SDS011;64227;48.724;9.104;2022-12-29T01:11:02;2.28;;;0.70;;
75634;SDS011;64227;48.724;9.104;2022-12-29T01:13:29;1.58;;;0.60;;
75634;SDS011;64227;48.724;9.104;2022-12-29T01:15:55;1.50;;;0.60;;
75634;SDS011;64227;48.724;9.104;2022-12-29T01:18:20;0.95;;;0.50;;
75634;SDS011;64227;48.724;9.104;2022-12-29T01:20:46;0.77;;;0.50;;
75634;SDS011;64227;48.724;9.104;2022-12-29T01:23:11;1.73;;;0.50;;
75634;SDS011;64227;48.724;9.104;2022-12-29T01:25:37;1.95;;;0.63;;
75634;SDS011;64227;48.724;9.104;2022-12-29T01:28:02;0.60;;;0.60;;
75634;SDS011;64227;48.724;9.104;2022-12-29T01:30:28;0.75;;;0.40;;
75634;SDS011;64227;48.724;9.104;2022-12-29T01:32:53;0.50;;;0.38;;
75634;SDS011;64227;48.724;9.104;2022-12-29T01:35:18;2.13;;;0.50;;
75634;SDS011;64227;48.724;9.104;2022-12-29T01:37:43;1.08;;;0.70;;
75634;SDS011;64227;48.724;9.104;2022-12-29T01:40:09;1.45;;;0.80;;
75634;SDS011;64227;48.724;9.104;2022-12-29T01:42:35;1.15;;;0.40;;
75634;SDS011;64227;48.724;9.104;2022-12-29T01:45:08;1.08;;;0.60;;
75634;SDS011;64227;48.724;9.104;2022-12-29T01:47:46;2.17;;;0.68;;
75634;SDS011;64227;48.724;9.104;2022-12-29T01:50:23;1.67;;;0.70;;
75634;SDS011;64227;48.724;9.104;2022-12-29T01:53:04;0.60;;;0.50;;
75634;SDS011;64227;48.724;9.104;2022-12-29T01:55:36;1.40;;;0.68;;
75634;SDS011;64227;48.724;9.104;2022-12-29T01:58:05;0.80;;;0.50;;
75634;SDS011;64227;48.724;9.104;2022-12-29T02:00:31;0.52;;;0.40;;
75634;SDS011;64227;48.724;9.104;2022-12-29T02:02:57;0.50;;;0.50;;
75634;SDS011;64227;48.724;9.104;2022-12-29T02:05:32;1.60;;;0.40;;
75634;SDS011;64227;48.724;9.104;2022-12-29T02:08:01;2.22;;;0.73;;
75634;SDS011;64227;48.724;9.104;2022-12-29T02:10:28;0.60;;;0.40;;
75634;SDS011;64227;48.724;9.104;2022-12-29T02:12:55;1.80;;;0.85;;
75634;SDS011;64227;48.724;9.104;2022-12-29T02:15:22;1.75;;;0.60;;
75634;SDS011;64227;48.724;9.104;2022-12-29T02:26:53;0.75;;;0.50;;
75634;SDS011;64227;48.724;9.104;2022-12-29T02:32:01;0.60;;;0.32;;
75634;SDS011;64227;48.724;9.104;2022-12-29T02:39:57;1.20;;;0.70;;
75634;SDS011;64227;48.724;9.104;2022-12-29T02:48:04;1.13;;;0.30;;
75634;SDS011;64227;48.724;9.104;2022-12-29T02:50:36;1.73;;;0.50;;
75634;SDS011;64227;48.724;9.104;2022-12-29T02:53:23;1.38;;;0.57;;
75634;SDS011;64227;48.724;9.104;2022-12-29T02:56:08;2.10;;;0.60;;
75634;SDS011;64227;48.724;9.104;2022-12-29T02:58:34;1.63;;;0.60;;
75634;SDS011;64227;48.724;9.104;2022-12-29T03:04:19;1.25;;;0.50;;
75634;SDS011;64227;48.724;9.104;2022-12-29T03:06:54;3.55;;;0.60;;
75634;SDS011;64227;48.724;9.104;2022-12-29T03:12:19;1.20;;;0.47;;
75634;SDS011;64227;48.724;9.104;2022-12-29T03:15:12;1.08;;;0.30;;
75634;SDS011;64227;48.724;9.104;2022-12-29T03:18:03;0.68;;;0.40;;
75634;SDS011;64227;48.724;9.104;2022-12-29T03:20:32;2.17;;;0.50;;
75634;SDS011;64227;48.724;9.104;2022-12-29T03:23:03;2.90;;;0.60;;
75634;SDS011;64227;48.724;9.104;2022-12-29T03:25:30;1.17;;;0.40;;
75634;SDS011;64227;48.724;9.104;2022-12-29T03:28:00;2.47;;;0.50;;
75634;SDS011;64227;48.724;9.104;2022-12-29T03:30:28;0.45;;;0.43;;
75634;SDS011;64227;48.724;9.104;2022-12-29T03:32:55;0.63;;;0.45;;
75634;SDS011;64227;48.724;9.104;2022-12-29T03:35:24;1.42;;;0.60;;
75634;SDS011;64227;48.724;9.104;2022-12-29T03:37:54;2.17;;;0.63;;
75634;SDS011;64227;48.724;9.104;2022-12-29T03:40:24;0.30;;;0.30;;
75634;SDS011;64227;48.724;9.104;2022-12-29T03:42:50;1.00;;;0.40;;
75634;SDS011;64227;48.724;9.104;2022-12-29T03:45:16;2.88;;;0.80;;
75634;SDS011;64227;48.724;9.104;2022-12-29T03:47:41;3.00;;;0.82;;
75634;SDS011;64227;48.724;9.104;2022-12-29T03:50:06;1.10;;;0.45;;
75634;SDS011;64227;48.724;9.104;2022-12-29T03:52:33;0.93;;;0.40;;
75634;SDS011;64227;48.724;9.104;2022-12-29T03:54:59;1.02;;;0.60;;
75634;SDS011;64227;48.724;9.104;2022-12-29T03:57:24;0.52;;;0.47;;
75634;SDS011;64227;48.724;9.104;2022-12-29T03:59:49;1.23;;;0.75;;
75634;SDS011;64227;48.724;9.104;2022-12-29T04:02:15;1.58;;;0.55;;
75634;SDS011;64227;48.724;9.104;2022-12-29T04:04:40;0.73;;;0.50;;
75634;SDS011;64227;48.724;9.104;2022-12-29T04:07:05;1.38;;;0.52;;
75634;SDS011;64227;48.724;9.104;2022-12-29T04:09:31;1.33;;;0.40;;
75634;SDS011;64227;48.724;9.104;2022-12-29T04:11:56;0.63;;;0.50;;
75634;SDS011;64227;48.724;9.104;2022-12-29T04:14:21;2.35;;;0.70;;
75634;SDS011;64227;48.724;9.104;2022-12-29T04:16:47;2.05;;;0.60;;
75634;SDS011;64227;48.724;9.104;2022-12-29T04:19:12;2.17;;;0.43;;
75634;SDS011;64227;48.724;9.104;2022-12-29T04:21:37;1.13;;;0.63;;
75634;SDS011;64227;48.724;9.104;2022-12-29T04:24:03;2.67;;;0.60;;
75634;SDS011;64227;48.724;9.104;2022-12-29T04:26:31;1.65;;;0.52;;
75634;SDS011;64227;48.724;9.104;2022-12-29T04:28:56;0.65;;;0.50;;
75634;SDS011;64227;48.724;9.104;2022-12-29T04:31:21;1.10;;;0.50;;
75634;SDS011;64227;48.724;9.104;2022-12-29T04:33:47;1.17;;;0.47;;
75634;SDS011;64227;48.724;9.104;2022-12-29T04:36:12;3.13;;;0.90;;
75634;SDS011;64227;48.724;9.104;2022-12-29T04:38:37;0.70;;;0.60;;
75634;SDS011;64227;48.724;9.104;2022-12-29T04:41:03;0.73;;;0.60;;
75634;SDS011;64227;48.724;9.104;2022-12-29T04:43:29;0.98;;;0.50;;
75634;SDS011;64227;48.724;9.104;2022-12-29T04:45:54;0.73;;;0.57;;
75634;SDS011;64227;48.724;9.104;2022-12-29T04:48:20;1.15;;;0.60;;
75634;SDS011;64227;48.724;9.104;2022-12-29T04:50:46;3.25;;;0.68;;
75634;SDS011;64227;48.724;9.104;2022-12-29T04:53:12;1.63;;;0.68;;
75634;SDS011;64227;48.724;9.104;2022-12-29T04:55:38;0.97;;;0.43;;
75634;SDS011;64227;48.724;9.104;2022-12-29T04:58:03;0.60;;;0.60;;
75634;SDS011;64227;48.724;9.104;2022-12-29T05:00:28;2.05;;;0.68;;
75634;SDS011;64227;48.724;9.104;2022-12-29T05:02:54;1.65;;;0.70;;
75634;SDS011;64227;48.724;9.104;2022-12-29T05:05:19;1.23;;;0.60;;
75634;SDS011;64227;48.724;9.104;2022-12-29T05:07:44;0.85;;;0.55;;
75634;SDS011;64227;48.724;9.104;2022-12-29T05:10:10;1.50;;;0.63;;
75634;SDS011;64227;48.724;9.104;2022-12-29T05:12:36;0.82;;;0.50;;
75634;SDS011;64227;48.724;9.104;2022-12-29T05:15:02;0.93;;;0.60;;
75634;SDS011;64227;48.724;9.104;2022-12-29T05:17:28;3.63;;;1.00;;
75634;SDS011;64227;48.724;9.104;2022-12-29T05:19:54;1.38;;;0.73;;
75634;SDS011;64227;48.724;9.104;2022-12-29T05:22:19;1.95;;;0.68;;
75634;SDS011;64227;48.724;9.104;2022-12-29T05:24:44;1.83;;;0.70;;
75634;SDS011;64227;48.724;9.104;2022-12-29T05:27:10;1.15;;;0.60;;
75634;SDS011;64227;48.724;9.104;2022-12-29T05:29:35;3.47;;;0.77;;
75634;SDS011;64227;48.724;9.104;2022-12-29T05:32:00;0.47;;;0.43;;
75634;SDS011;64227;48.724;9.104;2022-12-29T05:34:26;1.15;;;0.80;;
75634;SDS011;64227;48.724;9.104;2022-12-29T05:36:51;1.90;;;0.80;;
75634;SDS011;64227;48.724;9.104;2022-12-29T05:39:17;1.13;;;0.73;;
75634;SDS011;64227;48.724;9.104;2022-12-29T05:41:42;1.00;;;0.70;;
75634;SDS011;64227;48.724;9.104;2022-12-29T05:44:07;2.13;;;0.63;;
75634;SDS011;64227;48.724;9.104;2022-12-29T05:46:35;1.38;;;0.88;;
75634;SDS011;64227;48.724;9.104;2022-12-29T05:49:00;1.30;;;0.52;;
75634;SDS011;64227;48.724;9.104;2022-12-29T05:51:25;2.30;;;0.90;;
75634;SDS011;64227;48.724;9.104;2022-12-29T05:53:51;1.97;;;0.63;;
75634;SDS011;64227;48.724;9.104;2022-12-29T05:56:16;0.88;;;0.70;;
75634;SDS011;64227;48.724;9.104;2022-12-29T05:58:41;1.13;;;0.40;;
75634;SDS011;64227;48.724;9.104;2022-12-29T06:01:07;1.00;;;0.50;;
75634;SDS011;64227;48.724;9.104;2022-12-29T06:03:32;0.57;;;0.57;;
75634;SDS011;64227;48.724;9.104;2022-12-29T06:05:57;1.02;;;0.93;;
75634;SDS011;64227;48.724;9.104;2022-12-29T06:08:23;0.65;;;0.65;;
75634;SDS011;64227;48.724;9.104;2022-12-29T06:10:49;0.60;;;0.60;;
75634;SDS011;64227;48.724;9.104;2022-12-29T06:13:14;0.77;;;0.73;;
75634;SDS011;64227;48.724;9.104;2022-12-29T06:15:40;2.05;;;0.55;;
75634;SDS011;64227;48.724;9.104;2022-12-29T06:18:05;0.90;;;0.60;;
75634;SDS011;64227;48.724;9.104;2022-12-29T06:20:30;1.08;;;0.50;;
75634;SDS011;64227;48.724;9.104;2022-12-29T06:22:56;1.45;;;0.60;;
75634;SDS011;64227;48.724;9.104;2022-12-29T06:25:21;1.83;;;0.68;;
75634;SDS011;64227;48.724;9.104;2022-12-29T06:27:46;0.82;;;0.63;;
75634;SDS011;64227;48.724;9.104;2022-12-29T06:30:12;2.75;;;0.60;;
75634;SDS011;64227;48.724;9.104;2022-12-29T06:32:37;1.05;;;0.75;;
75634;SDS011;64227;48.724;9.104;2022-12-29T06:35:03;0.73;;;0.47;;
75634;SDS011;64227;48.724;9.104;2022-12-29T06:37:29;1.58;;;0.88;;
75634;SDS011;64227;48.724;9.104;2022-12-29T06:39:54;1.10;;;0.55;;
75634;SDS011;64227;48.724;9.104;2022-12-29T06:42:20;1.48;;;1.30;;
75634;SDS011;64227;48.724;9.104;2022-12-29T06:44:45;1.00;;;0.80;;
75634;SDS011;64227;48.724;9.104;2022-12-29T06:47:10;1.83;;;0.70;;
75634;SDS011;64227;48.724;9.104;2022-12-29T06:49:36;0.73;;;0.60;;
75634;SDS011;64227;48.724;9.104;2022-12-29T06:52:01;1.70;;;1.20;;
75634;SDS011;64227;48.724;9.104;2022-12-29T06:54:29;1.55;;;0.90;;
75634;SDS011;64227;48.724;9.104;2022-12-29T06:56:54;2.83;;;1.38;;
75634;SDS011;64227;48.724;9.104;2022-12-29T06:59:20;1.30;;;0.80;;
75634;SDS011;64227;48.724;9.104;2022-12-29T07:01:45;0.85;;;0.60;;
75634;SDS011;64227;48.724;9.104;2022-12-29T07:04:10;1.15;;;0.65;;
75634;SDS011;64227;48.724;9.104;2022-12-29T07:09:03;1.40;;;0.68;;
75634;SDS011;64227;48.724;9.104;2022-12-29T07:11:29;0.80;;;0.40;;
75634;SDS011;64227;48.724;9.104;2022-12-29T07:13:54;0.98;;;0.63;;
75634;SDS011;64227;48.724;9.104;2022-12-29T07:16:20;0.60;;;0.60;;
75634;SDS011;64227;48.724;9.104;2022-12-29T07:18:45;0.73;;;0.60;;
75634;SDS011;64227;48.724;9.104;2022-12-29T07:21:11;1.00;;;0.52;;
75634;SDS011;64227;48.724;9.104;2022-12-29T07:23:36;1.08;;;0.68;;
75634;SDS011;64227;48.724;9.104;2022-12-29T07:26:03;1.50;;;0.40;;
75634;SDS011;64227;48.724;9.104;2022-12-29T07:28:30;1.05;;;0.93;;
75634;SDS011;64227;48.724;9.104;2022-12-29T07:30:57;1.85;;;0.70;;
75634;SDS011;64227;48.724;9.104;2022-12-29T07:33:22;1.70;;;0.80;;
75634;SDS011;64227;48.724;9.104;2022-12-29T07:35:48;0.73;;;0.57;;
75634;SDS011;64227;48.724;9.104;2022-12-29T07:38:13;4.25;;;1.75;;
75634;SDS011;64227;48.724;9.104;2022-12-29T07:40:39;4.32;;;1.85;;
75634;SDS011;64227;48.724;9.104;2022-12-29T07:43:04;4.20;;;2.10;;
75634;SDS011;64227;48.724;9.104;2022-12-29T07:45:30;3.17;;;1.20;;
75634;SDS011;64227;48.724;9.104;2022-12-29T07:47:55;2.83;;;1.20;;
75634;SDS011;64227;48.724;9.104;2022-12-29T07:50:20;1.90;;;1.23;;
75634;SDS011;64227;48.724;9.104;2022-12-29T07:52:46;1.38;;;1.08;;
75634;SDS011;64227;48.724;9.104;2022-12-29T07:55:12;2.55;;;1.85;;
75634;SDS011;64227;48.724;9.104;2022-12-29T07:57:38;2.20;;;2.00;;
75634;SDS011;64227;48.724;9.104;2022-12-29T08:00:04;2.10;;;1.90;;
75634;SDS011;64227;48.724;9.104;2022-12-29T08:02:29;2.22;;;1.85;;
75634;SDS011;64227;48.724;9.104;2022-12-29T08:04:54;3.07;;;2.07;;
75634;SDS011;64227;48.724;9.104;2022-12-29T08:07:20;3.08;;;1.73;;
75634;SDS011;64227;48.724;9.104;2022-12-29T08:09:45;3.05;;;1.90;;
75634;SDS011;64227;48.724;9.104;2022-12-29T08:12:10;6.53;;;1.33;;
75634;SDS011;64227;48.724;9.104;2022-12-29T08:14:36;2.67;;;1.50;;
75634;SDS011;64227;48.724;9.104;2022-12-29T08:17:01;2.17;;;1.50;;
75634;SDS011;64227;48.724;9.104;2022-12-29T08:19:27;1.50;;;1.20;;
75634;SDS011;64227;48.724;9.104;2022-12-29T08:21:52;1.87;;;1.10;;
75634;SDS011;64227;48.724;9.104;2022-12-29T08:24:18;4.43;;;3.17;;
75634;SDS011;64227;48.724;9.104;2022-12-29T08:26:43;2.80;;;1.73;;
75634;SDS011;64227;48.724;9.104;2022-12-29T08:29:08;2.20;;;1.33;;
75634;SDS011;64227;48.724;9.104;2022-12-29T08:31:34;2.17;;;1.10;;
75634;SDS011;64227;48.724;9.104;2022-12-29T08:33:59;3.92;;;2.58;;
75634;SDS011;64227;48.724;9.104;2022-12-29T08:36:25;3.78;;;2.78;;
75634;SDS011;64227;48.724;9.104;2022-12-29T08:38:50;4.10;;;3.05;;
75634;SDS011;64227;48.724;9.104;2022-12-29T08:41:15;3.83;;;2.63;;
75634;SDS011;64227;48.724;9.104;2022-12-29T08:43:41;4.07;;;2.50;;
75634;SDS011;64227;48.724;9.104;2022-12-29T08:46:06;12.40;;;6.15;;
75634;SDS011;64227;48.724;9.104;2022-12-29T08:48:31;16.15;;;7.75;;
75634;SDS011;64227;48.724;9.104;2022-12-29T08:50:57;7.97;;;3.27;;
75634;SDS011;64227;48.724;9.104;2022-12-29T08:53:22;3.03;;;1.27;;
75634;SDS011;64227;48.724;9.104;2022-12-29T08:55:53;9.70;;;3.83;;
75634;SDS011;64227;48.724;9.104;2022-12-29T08:58:20;10.10;;;5.25;;
75634;SDS011;64227;48.724;9.104;2022-12-29T09:00:46;5.13;;;2.60;;
75634;SDS011;64227;48.724;9.104;2022-12-29T09:03:11;10.82;;;4.32;;
75634;SDS011;64227;48.724;9.104;2022-12-29T09:05:36;15.70;;;7.30;;
75634;SDS011;64227;48.724;9.104;2022-12-29T09:08:02;37.85;;;15.70;;
75634;SDS011;64227;48.724;9.104;2022-12-29T09:10:27;22.02;;;9.82;;
75634;SDS011;64227;48.724;9.104;2022-12-29T09:12:53;9.68;;;4.28;;
75634;SDS011;64227;48.724;9.104;2022-12-29T09:15:18;5.60;;;2.55;;
75634;SDS011;64227;48.724;9.104;2022-12-29T09:17:44;4.05;;;2.10;;
75634;SDS011;64227;48.724;9.104;2022-12-29T09:20:14;2.80;;;1.17;;
75634;SDS011;64227;48.724;9.104;2022-12-29T09:22:43;2.72;;;0.93;;
75634;SDS011;64227;48.724;9.104;2022-12-29T09:25:09;1.83;;;0.93;;
75634;SDS011;64227;48.724;9.104;2022-12-29T09:27:35;1.75;;;1.00;;
75634;SDS011;64227;48.724;9.104;2022-12-29T09:30:01;2.60;;;1.10;;
75634;SDS011;64227;48.724;9.104;2022-12-29T09:32:27;1.77;;;1.10;;
75634;SDS011;64227;48.724;9.104;2022-12-29T09:34:52;1.60;;;0.97;;
75634;SDS011;64227;48.724;9.104;2022-12-29T09:37:17;2.55;;;1.15;;
75634;SDS011;64227;48.724;9.104;2022-12-29T09:39:42;2.90;;;1.00;;
75634;SDS011;64227;48.724;9.104;2022-12-29T09:42:13;1.80;;;1.10;;
75634;SDS011;64227;48.724;9.104;2022-12-29T09:44:46;1.55;;;1.13;;
75634;SDS011;64227;48.724;9.104;2022-12-29T09:47:16;2.75;;;1.15;;
75634;SDS011;64227;48.724;9.104;2022-12-29T09:52:13;2.50;;;1.15;;
75634;SDS011;64227;48.724;9.104;2022-12-29T09:54:41;1.20;;;0.80;;
75634;SDS011;64227;48.724;9.104;2022-12-29T09:57:16;1.42;;;0.88;;
75634;SDS011;64227;48.724;9.104;2022-12-29T09:59:46;0.77;;;0.77;;
75634;SDS011;64227;48.724;9.104;2022-12-29T10:02:26;2.42;;;0.88;;
75634;SDS011;64227;48.724;9.104;2022-12-29T10:05:12;0.73;;;0.55;;
75634;SDS011;64227;48.724;9.104;2022-12-29T10:22:05;2.65;;;1.40;;
75634;SDS011;64227;48.724;9.104;2022-12-29T10:24:51;2.22;;;1.10;;
75634;SDS011;64227;48.724;9.104;2022-12-29T10:27:18;4.60;;;1.75;;
75634;SDS011;64227;48.724;9.104;2022-12-29T10:29:52;14.30;;;5.55;;
75634;SDS011;64227;48.724;9.104;2022-12-29T10:32:25;8.52;;;3.22;;
75634;SDS011;64227;48.724;9.104;2022-12-29T10:34:56;2.65;;;0.93;;
75634;SDS011;64227;48.724;9.104;2022-12-29T10:40:14;1.10;;;0.68;;
75634;SDS011;64227;48.724;9.104;2022-12-29T10:42:44;1.35;;;0.77;;
75634;SDS011;64227;48.724;9.104;2022-12-29T10:47:38;2.53;;;0.73;;
75634;SDS011;64227;48.724;9.104;2022-12-29T10:50:06;1.23;;;0.60;;
75634;SDS011;64227;48.724;9.104;2022-12-29T10:52:32;1.42;;;0.50;;
75634;SDS011;64227;48.724;9.104;2022-12-29T10:55:05;1.30;;;1.00;;
75634;SDS011;64227;48.724;9.104;2022-12-29T10:57:36;1.48;;;0.68;;
75634;SDS011;64227;48.724;9.104;2022-12-29T11:00:18;1.05;;;0.65;;
75634;SDS011;64227;48.724;9.104;2022-12-29T11:05:29;1.52;;;0.70;;
75634;SDS011;64227;48.724;9.104;2022-12-29T11:08:00;0.70;;;0.52;;
75634;SDS011;64227;48.724;9.104;2022-12-29T11:10:37;1.70;;;0.60;;
75634;SDS011;64227;48.724;9.104;2022-12-29T11:15:45;0.73;;;0.63;;
75634;SDS011;64227;48.724;9.104;2022-12-29T11:20:48;0.68;;;0.52;;
75634;SDS011;64227;48.724;9.104;2022-12-29T11:26:07;2.38;;;1.55;;
75634;SDS011;64227;48.724;9.104;2022-12-29T11:28:42;1.35;;;1.05;;
75634;SDS011;64227;48.724;9.104;2022-12-29T11:31:09;1.10;;;0.70;;
75634;SDS011;64227;48.724;9.104;2022-12-29T11:33:35;2.47;;;0.80;;
75634;SDS011;64227;48.724;9.104;2022-12-29T11:36:06;1.02;;;0.70;;
75634;SDS011;64227;48.724;9.104;2022-12-29T11:38:36;2.70;;;0.80;;
75634;SDS011;64227;48.724;9.104;2022-12-29T11:41:03;1.38;;;0.80;;
75634;SDS011;64227;48.724;9.104;2022-12-29T11:43:33;1.42;;;0.77;;
75634;SDS011;64227;48.724;9.104;2022-12-29T11:46:02;1.02;;;0.80;;
75634;SDS011;64227;48.724;9.104;2022-12-29T11:48:29;1.60;;;0.93;;
75634;SDS011;64227;48.724;9.104;2022-12-29T11:53:25;2.75;;;1.65;;
75634;SDS011;64227;48.724;9.104;2022-12-29T11:56:03;2.47;;;0.98;;
75634;SDS011;64227;48.724;9.104;2022-12-29T11:58:31;7.55;;;4.80;;
75634;SDS011;64227;48.724;9.104;2022-12-29T12:01:05;10.80;;;5.63;;
75634;SDS011;64227;48.724;9.104;2022-12-29T12:03:32;3.75;;;1.50;;
75634;SDS011;64227;48.724;9.104;2022-12-29T12:06:01;1.60;;;0.45;;
75634;SDS011;64227;48.724;9.104;2022-12-29T12:09:02;3.30;;;1.98;;
75634;SDS011;64227;48.724;9.104;2022-12-29T12:11:21;3.05;;;1.88;;
75634;SDS011;64227;48.724;9.104;2022-12-29T12:16:46;1.63;;;0.82;;
75634;SDS011;64227;48.724;9.104;2022-12-29T12:19:27;1.58;;;0.70;;
75634;SDS011;64227;48.724;9.104;2022-12-29T12:22:07;2.85;;;0.85;;
75634;SDS011;64227;48.724;9.104;2022-12-29T12:27:16;1.88;;;0.70;;
75634;SDS011;64227;48.724;9.104;2022-12-29T12:40:48;1.58;;;0.98;;
75634;SDS011;64227;48.724;9.104;2022-12-29T12:43:43;4.38;;;0.90;;
75634;SDS011;64227;48.724;9.104;2022-12-29T12:52:01;0.98;;;0.88;;
75634;SDS011;64227;48.724;9.104;2022-12-29T12:55:02;2.70;;;1.00;;
75634;SDS011;64227;48.724;9.104;2022-12-29T13:00:16;1.52;;;0.80;;
75634;SDS011;64227;48.724;9.104;2022-12-29T13:05:38;4.88;;;1.50;;
75634;SDS011;64227;48.724;9.104;2022-12-29T13:14:02;1.88;;;1.33;;
75634;SDS011;64227;48.724;9.104;2022-12-29T13:16:37;1.42;;;1.00;;
75634;SDS011;64227;48.724;9.104;2022-12-29T13:19:20;2.25;;;0.80;;
75634;SDS011;64227;48.724;9.104;2022-12-29T13:21:57;2.08;;;0.80;;
75634;SDS011;64227;48.724;9.104;2022-12-29T13:24:37;1.40;;;1.15;;
75634;SDS011;64227;48.724;9.104;2022-12-29T13:27:21;1.98;;;1.40;;
75634;SDS011;64227;48.724;9.104;2022-12-29T13:30:12;1.70;;;1.00;;
75634;SDS011;64227;48.724;9.104;2022-12-29T13:35:35;1.13;;;0.90;;
75634;SDS011;64227;48.724;9.104;2022-12-29T13:38:13;3.17;;;1.60;;
75634;SDS011;64227;48.724;9.104;2022-12-29T13:40:43;1.65;;;1.38;;
75634;SDS011;64227;48.724;9.104;2022-12-29T13:43:11;2.53;;;1.17;;
75634;SDS011;64227;48.724;9.104;2022-12-29T13:45:38;0.80;;;0.80;;
75634;SDS011;64227;48.724;9.104;2022-12-29T13:50:48;4.95;;;1.83;;
75634;SDS011;64227;48.724;9.104;2022-12-29T13:56:19;9.77;;;4.47;;
75634;SDS011;64227;48.724;9.104;2022-12-29T14:01:39;17.92;;;8.18;;
75634;SDS011;64227;48.724;9.104;2022-12-29T14:04:14;5.22;;;3.05;;
75634;SDS011;64227;48.724;9.104;2022-12-29T14:06:46;4.82;;;2.65;;
75634;SDS011;64227;48.724;9.104;2022-12-29T14:17:36;2.53;;;1.45;;
75634;SDS011;64227;48.724;9.104;2022-12-29T14:20:03;1.17;;;1.02;;
75634;SDS011;64227;48.724;9.104;2022-12-29T14:22:29;2.10;;;1.15;;
75634;SDS011;64227;48.724;9.104;2022-12-29T14:24:55;2.38;;;1.48;;
75634;SDS011;64227;48.724;9.104;2022-12-29T14:29:46;1.00;;;0.70;;
75634;SDS011;64227;48.724;9.104;2022-12-29T14:34:50;1.48;;;0.80;;
75634;SDS011;64227;48.724;9.104;2022-12-29T14:37:35;0.70;;;0.70;;
75634;SDS011;64227;48.724;9.104;2022-12-29T14:40:17;1.52;;;0.70;;
75634;SDS011;64227;48.724;9.104;2022-12-29T14:42:45;1.60;;;0.80;;
75634;SDS011;64227;48.724;9.104;2022-12-29T14:47:40;1.17;;;0.80;;
75634;SDS011;64227;48.724;9.104;2022-12-29T14:52:48;2.37;;;0.70;;
75634;SDS011;64227;48.724;9.104;2022-12-29T14:57:41;0.93;;;0.80;;
75634;SDS011;64227;48.724;9.104;2022-12-29T15:02:45;2.88;;;0.73;;
75634;SDS011;64227;48.724;9.104;2022-12-29T15:07:58;1.73;;;0.98;;
75634;SDS011;64227;48.724;9.104;2022-12-29T15:10:24;1.20;;;0.60;;
75634;SDS011;64227;48.724;9.104;2022-12-29T15:12:54;0.85;;;0.77;;
75634;SDS011;64227;48.724;9.104;2022-12-29T15:17:45;0.50;;;0.50;;
75634;SDS011;64227;48.724;9.104;2022-12-29T15:20:44;1.75;;;0.80;;
75634;SDS011;64227;48.724;9.104;2022-12-29T15:23:09;0.73;;;0.60;;
75634;SDS011;64227;48.724;9.104;2022-12-29T15:25:36;1.20;;;0.57;;
75634;SDS011;64227;48.724;9.104;2022-12-29T15:28:02;1.33;;;0.63;;
75634;SDS011;64227;48.724;9.104;2022-12-29T15:30:29;2.63;;;0.80;;
75634;SDS011;64227;48.724;9.104;2022-12-29T15:32:55;2.10;;;0.98;;
75634;SDS011;64227;48.724;9.104;2022-12-29T15:35:25;2.20;;;0.88;;
75634;SDS011;64227;48.724;9.104;2022-12-29T15:37:55;3.25;;;0.85;;
75634;SDS011;64227;48.724;9.104;2022-12-29T15:40:31;0.98;;;0.80;;
75634;SDS011;64227;48.724;9.104;2022-12-29T15:43:07;1.77;;;0.93;;
75634;SDS011;64227;48.724;9.104;2022-12-29T15:45:53;2.72;;;0.90;;
75634;SDS011;64227;48.724;9.104;2022-12-29T15:48:20;1.25;;;1.02;;
75634;SDS011;64227;48.724;9.104;2022-12-29T15:50:46;1.42;;;0.85;;
75634;SDS011;64227;48.724;9.104;2022-12-29T15:53:17;1.75;;;1.00;;
75634;SDS011;64227;48.724;9.104;2022-12-29T15:55:44;2.47;;;0.70;;
75634;SDS011;64227;48.724;9.104;2022-12-29T15:58:23;0.80;;;0.80;;
75634;SDS011;64227;48.724;9.104;2022-12-29T16:00:51;3.40;;;0.70;;
75634;SDS011;64227;48.724;9.104;2022-12-29T16:03:19;2.13;;;0.73;;
75634;SDS011;64227;48.724;9.104;2022-12-29T16:05:56;1.77;;;0.77;;
75634;SDS011;64227;48.724;9.104;2022-12-29T16:11:26;0.40;;;0.40;;
75634;SDS011;64227;48.724;9.104;2022-12-29T16:13:52;0.47;;;0.40;;
75634;SDS011;64227;48.724;9.104;2022-12-29T16:16:22;0.88;;;0.50;;
75634;SDS011;64227;48.724;9.104;2022-12-29T16:18:50;1.17;;;0.40;;
75634;SDS011;64227;48.724;9.104;2022-12-29T16:21:16;0.52;;;0.20;;
75634;SDS011;64227;48.724;9.104;2022-12-29T16:26:16;0.73;;;0.22;;
75634;SDS011;64227;48.724;9.104;2022-12-29T16:28:43;0.68;;;0.40;;
75634;SDS011;64227;48.724;9.104;2022-12-29T16:34:10;0.55;;;0.20;;
75634;SDS011;64227;48.724;9.104;2022-12-29T16:40:20;0.98;;;0.35;;
75634;SDS011;64227;48.724;9.104;2022-12-29T16:42:47;1.35;;;0.30;;
75634;SDS011;64227;48.724;9.104;2022-12-29T16:45:30;0.65;;;0.30;;
75634;SDS011;64227;48.724;9.104;2022-12-29T16:48:23;2.00;;;0.60;;
75634;SDS011;64227;48.724;9.104;2022-12-29T16:53:18;0.23;;;0.20;;
75634;SDS011;64227;48.724;9.104;2022-12-29T16:55:52;0.88;;;0.30;;
75634;SDS011;64227;48.724;9.104;2022-12-29T16:58:18;0.70;;;0.50;;
75634;SDS011;64227;48.724;9.104;2022-12-29T17:00:54;2.03;;;0.75;;
75634;SDS011;64227;48.724;9.104;2022-12-29T17:03:20;1.00;;;0.70;;
75634;SDS011;64227;48.724;9.104;2022-12-29T17:05:46;2.35;;;0.80;;
75634;SDS011;64227;48.724;9.104;2022-12-29T17:08:18;2.22;;;0.70;;
75634;SDS011;64227;48.724;9.104;2022-12-29T17:10:51;0.63;;;0.60;;
75634;SDS011;64227;48.724;9.104;2022-12-29T17:13:38;0.50;;;0.30;;
75634;SDS011;64227;48.724;9.104;2022-12-29T17:16:04;1.55;;;0.40;;
75634;SDS011;64227;48.724;9.104;2022-12-29T17:18:32;0.30;;;0.30;;
75634;SDS011;64227;48.724;9.104;2022-12-29T17:20:58;0.82;;;0.30;;
75634;SDS011;64227;48.724;9.104;2022-12-29T17:23:23;3.03;;;0.38;;
75634;SDS011;64227;48.724;9.104;2022-12-29T17:25:49;0.73;;;0.28;;
75634;SDS011;64227;48.724;9.104;2022-12-29T17:28:24;1.33;;;0.68;;
75634;SDS011;64227;48.724;9.104;2022-12-29T17:31:09;0.80;;;0.30;;
75634;SDS011;64227;48.724;9.104;2022-12-29T17:33:36;0.35;;;0.20;;
75634;SDS011;64227;48.724;9.104;2022-12-29T17:36:02;0.50;;;0.30;;